Impacts METAR Board INFO
IDs:

KPIT - Pittsburgh Intl, PA, US

Updated at: 1406 UTC 23 Jan 2018
Potential Impact None Slight Moderate High
Time23/02Z 23/03Z 23/04Z 23/05Z 23/06Z 23/07Z 23/08Z 23/09Z 23/10Z 23/11Z 23/12Z 23/13Z 23/14Z
VIS10 10 10 10 10 10 9 10 10 10 10 10 10
CIG75 80 -- -- -- -- 55 70 75 60 55 60 60
CoverOVCBKNSCTSCTSCTSCTOVCOVCOVCOVCOVCBKNBKN
FltCatVFRVFRVFRVFRVFRVFRVFRVFRVFRVFRVFRVFRVFR
WX-RA-----------RA---RA-DZ------
WDir150140160160150160250220170190230230210
WSpd8 8 8 9 7 7 9 3 4 5 5 7 9
WGst-- -- -- -- -- -- 18 -- -- -- -- -- 16
Raw hourly METARs
KPIT 230151Z 15008KT 10SM -RA OVC075 13/07 A2975 RMK AO2 RAB0057 SLP084 P0000 T01280067
KPIT 230251Z 14008KT 10SM BKN080 13/07 A2971 RMK AO2 RAE16 SLP067 P0000 60000 T01280067 58029
KPIT 230351Z 16008KT 10SM SCT055 13/06 A2968 RMK AO2 SLP057 T01280061
KPIT 230451Z 16009KT 10SM SCT070 13/06 A2964 RMK AO2 SLP043 T01280056 401720067
KPIT 230551Z 15007KT 10SM SCT050 SCT065 12/06 A2960 RMK AO2 SLP029 60000 T01170061 10150 20117 58036
KPIT 230651Z 16007KT 10SM FEW060 FEW080 SCT095 SCT170 12/06 A2956 RMK AO2 LTG DSNT W SLP016 T01170061
KPIT 230751Z 25009G18KT 9SM -RA FEW021 FEW046 OVC055 10/08 A2963 RMK AO2 PK WND 24031/0733 LTG DSNT N AND NE RAB24 SLP040 P0008 T01000078
KPIT 230851Z 22003KT 10SM SCT046 OVC070 09/08 A2961 RMK AO2 RAE49 SLP032 P0007 60015 T00940083 53003
KPIT 230951Z 17004KT 10SM -RA SCT055 BKN075 OVC100 08/08 A2960 RMK AO2 RAB30 SLP030 P0000 T00830078
KPIT 231051Z 19005KT 10SM -DZ FEW045 OVC060 09/08 A2962 RMK AO2 RAE32DZB51 SLP038 P0000 T00890078
KPIT 231151Z 23005KT 10SM SCT048 BKN055 OVC075 09/05 A2961 RMK AO2 DZE28RAB28E50 SLP035 P0000 60015 70016 T00890050 10122 20083 50002
KPIT 231251Z 23007KT 10SM FEW032 BKN060 08/02 A2964 RMK AO2 SLP045 T00780022
KPIT 231351Z 21009G16KT 10SM BKN060 07/01 A2964 RMK AO2 SLP047 T00720011